Time,TemperatureF,DewpointF,PressureIn,WindDirection,WindDirectionDegrees,WindSpeedMPH,WindSpeedGustMPH,Humidity,HourlyPrecipIn,Conditions,Clouds,dailyrainin,SoftwareType,DateUTC
2013-03-14 00:01:00,31.6,21.2,29.90,West,270,0.0,0.0,65,0.00,SCT,SCT,0.00,WeatherDisplay:10.34,2013-03-14 04:01:00,
2013-03-14 00:03:00,31.6,21.2,29.90,West,270,0.0,0.0,65,0.00,SCT,SCT,0.00,WeatherDisplay:10.34,2013-03-14 04:03:00,
2013-03-14 00:05:00,31.5,21.0,29.90,West,270,0.0,0.0,65,0.00,SCT,SCT,0.00,WeatherDisplay:10.34,2013-03-14 04:05:00,
2013-03-14 00:08:00,31.5,21.0,29.90,West,270,0.0,3.0,65,0.00,SCT,SCT,0.00,WeatherDisplay:10.34,2013-03-14 04:08:00,
2013-03-14 00:13:00,31.5,21.0,29.90,West,270,0.0,0.0,65,0.00,SCT,SCT,0.00,WeatherDisplay:10.34,2013-03-14 04:13:00,
2013-03-14 00:18:00,31.5,21.0,29.90,West,270,0.0,0.0,65,0.00,SCT,SCT,0.00,WeatherDisplay:10.34,2013-03-14 04:18:00,
2013-03-14 00:23:00,31.5,21.0,29.90,West,270,0.0,0.0,65,0.00,SCT,SCT,0.00,WeatherDisplay:10.34,2013-03-14 04:23:00,
2013-03-14 00:28:00,31.5,21.4,29.90,West,270,0.0,0.0,66,0.00,SCT,SCT,0.00,WeatherDisplay:10.34,2013-03-14 04:28:00,
2013-03-14 00:33:00,31.3,21.2,29.90,West,270,0.0,3.0,66,0.00,SCT,SCT,0.00,WeatherDisplay:10.34,2013-03-14 04:33:00,
2013-03-14 00:38:00,31.3,21.2,29.89,West,270,0.0,2.0,66,0.00,SCT,SCT,0.00,WeatherDisplay:10.34,2013-03-14 04:38:00,
2013-03-14 00:43:00,31.3,21.2,29.89,WSW,253,0.0,2.0,66,0.00,SCT,SCT,0.00,WeatherDisplay:10.34,2013-03-14 04:43:00,
2013-03-14 00:48:00,31.3,21.2,29.89,WSW,253,0.0,0.0,66,0.00,SCT,SCT,0.00,WeatherDisplay:10.34,2013-03-14 04:48:00,
2013-03-14 00:54:00,31.1,21.1,29.89,WSW,253,0.0,3.0,66,0.00,SCT,SCT,0.00,WeatherDisplay:10.34,2013-03-14 04:54:00,
2013-03-14 00:59:00,31.1,21.1,29.89,WSW,253,0.0,0.0,66,0.00,SCT,SCT,0.00,WeatherDisplay:10.34,2013-03-14 04:59:00,
2013-03-14 01:04:00,31.1,21.1,29.89,WSW,253,0.0,5.0,66,0.00,SCT,SCT,0.00,WeatherDisplay:10.34,2013-03-14 05:04:00,
2013-03-14 01:09:00,31.1,21.4,29.89,WSW,253,0.0,2.0,67,0.00,SCT,SCT,0.00,WeatherDisplay:10.34,2013-03-14 05:09:00,
2013-03-14 01:14:00,30.9,21.2,29.89,WSW,253,0.0,0.0,67,0.00,SCT,SCT,0.00,WeatherDisplay:10.34,2013-03-14 05:14:00,
2013-03-14 01:19:00,31.1,21.4,29.89,WSW,253,0.0,2.0,67,0.00,SCT,SCT,0.00,WeatherDisplay:10.34,2013-03-14 05:19:00,
2013-03-14 01:24:00,31.1,21.4,29.89,WSW,253,0.0,0.0,67,0.00,SCT,SCT,0.00,WeatherDisplay:10.34,2013-03-14 05:24:00,
2013-03-14 01:29:00,30.9,21.2,29.89,WSW,253,0.0,0.0,67,0.00,SCT,SCT,0.00,WeatherDisplay:10.34,2013-03-14 05:29:00,
2013-03-14 01:34:00,30.7,21.1,29.89,WSW,253,0.0,0.0,67,0.00,SCT,SCT,0.00,WeatherDisplay:10.34,2013-03-14 05:34:00,
2013-03-14 01:39:00,30.7,21.1,29.89,WSW,253,0.0,0.0,67,0.00,SCT,SCT,0.00,WeatherDisplay:10.34,2013-03-14 05:39:00,
2013-03-14 01:44:00,30.7,21.4,29.89,WSW,253,0.0,0.0,68,0.00,SCT,SCT,0.00,WeatherDisplay:10.34,2013-03-14 05:44:00,
2013-03-14 01:49:00,30.6,21.2,29.89,WSW,253,0.0,0.0,68,0.00,SCT,SCT,0.00,WeatherDisplay:10.34,2013-03-14 05:49:00,
2013-03-14 01:54:00,30.6,21.2,29.89,WSW,254,0.0,3.0,68,0.00,SCT,SCT,0.00,WeatherDisplay:10.34,2013-03-14 05:54:00,
2013-03-14 01:59:00,30.6,21.2,29.89,West,272,0.0,6.0,68,0.00,SCT,SCT,0.00,WeatherDisplay:10.34,2013-03-14 05:59:00,
2013-03-14 02:04:00,30.2,20.6,29.89,West,272,0.0,2.0,67,0.00,SCT,SCT,0.00,WeatherDisplay:10.34,2013-03-14 06:04:00,
2013-03-14 02:09:00,30.2,20.9,29.90,West,262,3.0,5.0,68,0.00,SCT,SCT,0.00,WeatherDisplay:10.34,2013-03-14 06:09:00,
2013-03-14 02:14:00,30.2,20.9,29.89,WSW,249,3.0,5.0,68,0.00,SCT,SCT,0.00,WeatherDisplay:10.34,2013-03-14 06:14:00,
2013-03-14 02:19:00,30.2,20.9,29.90,WSW,238,3.0,0.0,68,0.00,SCT,SCT,0.00,WeatherDisplay:10.34,2013-03-14 06:19:00,
2013-03-14 02:24:00,30.0,20.7,29.90,WSW,241,0.0,2.0,68,0.00,SCT,SCT,0.00,WeatherDisplay:10.34,2013-03-14 06:24:00,
2013-03-14 02:29:00,30.2,21.2,29.90,WSW,238,0.0,3.0,69,0.00,SCT,SCT,0.00,WeatherDisplay:10.34,2013-03-14 06:29:00,
2013-03-14 02:34:00,30.4,21.4,29.90,SSW,212,3.0,3.0,69,0.00,SCT,SCT,0.00,WeatherDisplay:10.34,2013-03-14 06:34:00,
2013-03-14 02:39:00,30.0,21.1,29.90,WSW,258,3.0,3.0,69,0.00,SCT,SCT,0.00,WeatherDisplay:10.34,2013-03-14 06:39:00,
2013-03-14 02:44:00,29.8,20.6,29.89,WSW,258,5.0,13.0,68,0.00,SCT,SCT,0.00,WeatherDisplay:10.34,2013-03-14 06:44:00,
2013-03-14 02:49:00,29.5,20.2,29.86,WSW,254,3.0,3.0,68,0.00,SCT,SCT,0.00,WeatherDisplay:10.34,2013-03-14 06:49:00,
2013-03-14 02:54:00,29.3,20.4,29.86,WSW,248,4.0,6.0,69,0.00,SCT,SCT,0.00,WeatherDisplay:10.34,2013-03-14 06:54:00,
2013-03-14 02:59:00,29.5,20.9,29.86,WSW,245,3.0,3.0,70,0.00,SCT,SCT,0.00,WeatherDisplay:10.34,2013-03-14 06:59:00,
2013-03-14 03:04:00,29.3,20.7,29.86,WNW,294,0.0,7.0,70,0.00,SCT,SCT,0.00,WeatherDisplay:10.34,2013-03-14 07:04:00,
2013-03-14 03:09:00,29.1,20.6,29.86,West,262,4.0,6.0,70,0.00,SCT,SCT,0.00,WeatherDisplay:10.34,2013-03-14 07:09:00,
2013-03-14 03:14:00,28.9,20.4,29.86,WSW,237,4.0,5.0,70,0.00,SCT,SCT,0.00,WeatherDisplay:10.34,2013-03-14 07:14:00,
2013-03-14 03:19:00,28.8,20.2,29.87,WSW,244,0.0,2.0,70,0.00,SCT,SCT,0.00,WeatherDisplay:10.34,2013-03-14 07:19:00,
2013-03-14 03:24:00,28.8,20.5,29.87,West,264,0.0,3.0,71,0.00,SCT,SCT,0.00,WeatherDisplay:10.34,2013-03-14 07:24:00,
2013-03-14 03:29:00,28.9,20.7,29.86,West,268,3.0,6.0,71,0.00,SCT,SCT,0.00,WeatherDisplay:10.34,2013-03-14 07:29:00,
2013-03-14 03:34:00,28.9,20.7,29.86,West,273,0.0,5.0,71,0.00,SCT,SCT,0.00,WeatherDisplay:10.34,2013-03-14 07:34:00,
2013-03-14 03:39:00,29.1,20.9,29.86,WSW,251,0.0,3.0,71,0.00,SCT,SCT,0.00,WeatherDisplay:10.34,2013-03-14 07:39:00,
2013-03-14 03:44:00,28.8,19.9,29.87,WSW,244,3.0,3.0,69,0.00,SCT,SCT,0.00,WeatherDisplay:10.34,2013-03-14 07:44:00,
2013-03-14 03:49:00,28.9,20.0,29.87,West,261,0.0,0.0,69,0.00,SCT,SCT,0.00,WeatherDisplay:10.34,2013-03-14 07:49:00,
2013-03-14 03:54:00,28.8,19.9,29.87,WSW,241,0.0,2.0,69,0.00,SCT,SCT,0.00,WeatherDisplay:10.34,2013-03-14 07:54:00,
2013-03-14 03:59:00,28.8,19.5,29.87,West,272,0.0,3.0,68,0.00,SCT,SCT,0.00,WeatherDisplay:10.34,2013-03-14 07:59:00,
2013-03-14 04:04:00,28.6,19.4,29.87,West,270,3.0,5.0,68,0.00,SCT,SCT,0.00,WeatherDisplay:10.34,2013-03-14 08:04:00,
2013-03-14 04:09:00,28.6,19.4,29.87,West,269,0.0,6.0,68,0.00,SCT,SCT,0.00,WeatherDisplay:10.34,2013-03-14 08:09:00,
2013-03-14 04:14:00,28.4,19.2,29.87,West,268,3.0,6.0,68,0.00,SCT,SCT,0.00,WeatherDisplay:10.34,2013-03-14 08:14:00,
2013-03-14 04:19:00,28.2,19.0,29.87,West,267,0.0,0.0,68,0.00,SCT,SCT,0.00,WeatherDisplay:10.34,2013-03-14 08:19:00,
2013-03-14 04:24:00,28.2,19.0,29.87,West,266,3.0,5.0,68,0.00,SCT,SCT,0.00,WeatherDisplay:10.34,2013-03-14 08:24:00,
2013-03-14 04:29:00,28.2,19.0,29.87,West,264,0.0,3.0,68,0.00,SCT,SCT,0.00,WeatherDisplay:10.34,2013-03-14 08:29:00,
2013-03-14 04:34:00,28.0,18.8,29.87,West,263,0.0,2.0,68,0.00,SCT,SCT,0.00,WeatherDisplay:10.34,2013-03-14 08:34:00,
2013-03-14 04:39:00,28.0,18.8,29.87,SSW,206,3.0,3.0,68,0.00,SCT,SCT,0.00,WeatherDisplay:10.34,2013-03-14 08:39:00,
2013-03-14 04:44:00,28.0,18.8,29.87,WSW,239,3.0,3.0,68,0.00,SCT,SCT,0.00,WeatherDisplay:10.34,2013-03-14 08:44:00,
2013-03-14 04:49:00,27.9,18.3,29.87,SW,231,5.0,8.0,67,0.00,SCT,SCT,0.00,WeatherDisplay:10.34,2013-03-14 08:49:00,
2013-03-14 04:54:00,27.7,18.1,29.87,SW,235,5.0,8.0,67,0.00,SCT,SCT,0.00,WeatherDisplay:10.34,2013-03-14 08:54:00,
2013-03-14 04:59:00,27.9,18.0,29.87,WSW,242,3.0,3.0,66,0.00,SCT,SCT,0.00,WeatherDisplay:10.34,2013-03-14 08:59:00,
2013-03-14 05:04:00,28.0,18.5,29.87,WNW,297,3.0,9.0,67,0.00,SCT,SCT,0.00,WeatherDisplay:10.34,2013-03-14 09:04:00,
2013-03-14 05:09:00,28.0,17.8,29.87,WSW,252,0.0,2.0,65,0.00,SCT,SCT,0.00,WeatherDisplay:10.34,2013-03-14 09:09:00,
2013-03-14 05:14:00,28.2,18.0,29.87,SSW,207,0.0,3.0,65,0.00,SCT,SCT,0.00,WeatherDisplay:10.34,2013-03-14 09:14:00,
2013-03-14 05:19:00,28.2,17.6,29.87,WSW,239,4.0,7.0,64,0.00,SCT,SCT,0.00,WeatherDisplay:10.34,2013-03-14 09:19:00,
2013-03-14 05:24:00,28.2,17.6,29.87,West,269,0.0,5.0,64,0.00,SCT,SCT,0.00,WeatherDisplay:10.34,2013-03-14 09:24:00,
2013-03-14 05:29:00,28.2,16.9,29.87,WNW,299,4.0,5.0,62,0.00,SCT,SCT,0.00,WeatherDisplay:10.34,2013-03-14 09:29:00,
2013-03-14 05:34:00,28.6,16.8,29.87,WSW,239,5.0,7.0,61,0.00,SCT,SCT,0.00,WeatherDisplay:10.34,2013-03-14 09:34:00,
2013-03-14 05:39:00,28.6,16.4,29.87,WNW,298,4.0,8.0,60,0.00,SCT,SCT,0.00,WeatherDisplay:10.34,2013-03-14 09:39:00,
2013-03-14 05:44:00,28.4,15.5,29.87,SSW,211,0.0,3.0,58,0.00,SCT,SCT,0.00,WeatherDisplay:10.34,2013-03-14 09:44:00,
2013-03-14 05:49:00,28.4,15.5,29.87,WSW,252,0.0,3.0,58,0.00,SCT,SCT,0.00,WeatherDisplay:10.34,2013-03-14 09:49:00,
2013-03-14 05:54:00,28.6,15.7,29.87,WNW,287,4.0,8.0,58,0.00,SCT,SCT,0.00,WeatherDisplay:10.34,2013-03-14 09:54:00,
2013-03-14 05:59:00,28.6,15.7,29.87,WNW,288,3.0,7.0,58,0.00,SCT,SCT,0.00,WeatherDisplay:10.34,2013-03-14 09:59:00,
2013-03-14 06:04:00,28.6,14.9,29.87,West,272,3.0,6.0,56,0.00,SCT,SCT,0.00,WeatherDisplay:10.34,2013-03-14 10:04:00,
2013-03-14 06:09:00,28.6,14.4,29.87,WSW,250,4.0,6.0,55,0.00,SCT,SCT,0.00,WeatherDisplay:10.34,2013-03-14 10:09:00,
2013-03-14 06:14:00,28.4,14.3,29.87,SW,230,4.0,7.0,55,0.00,SCT,SCT,0.00,WeatherDisplay:10.34,2013-03-14 10:14:00,
2013-03-14 06:19:00,28.4,14.3,29.87,West,280,4.0,6.0,55,0.00,SCT,SCT,0.00,WeatherDisplay:10.34,2013-03-14 10:19:00,
2013-03-14 06:24:00,28.6,14.4,29.87,West,263,3.0,3.0,55,0.00,SCT,SCT,0.00,WeatherDisplay:10.34,2013-03-14 10:24:00,
2013-03-14 06:29:00,28.6,14.4,29.87,WNW,302,5.0,9.0,55,0.00,SCT,SCT,0.00,WeatherDisplay:10.34,2013-03-14 10:29:00,
2013-03-14 06:34:00,28.4,13.9,29.87,WSW,245,4.0,7.0,54,0.00,SCT,SCT,0.00,WeatherDisplay:10.34,2013-03-14 10:34:00,
2013-03-14 06:39:00,28.4,13.4,29.87,NW,304,3.0,0.0,53,0.00,SCT,SCT,0.00,WeatherDisplay:10.34,2013-03-14 10:39:00,
2013-03-14 06:44:00,28.2,13.3,29.87,NW,320,4.0,6.0,53,0.00,SCT,SCT,0.00,WeatherDisplay:10.34,2013-03-14 10:44:00,
2013-03-14 06:49:00,28.4,13.9,29.87,NNE,13,0.0,3.0,54,0.00,SCT,SCT,0.00,WeatherDisplay:10.34,2013-03-14 10:49:00,
2013-03-14 06:54:00,28.4,13.9,29.87,South,179,0.0,0.0,54,0.00,SCT,SCT,0.00,WeatherDisplay:10.34,2013-03-14 10:54:00,
2013-03-14 06:59:00,28.6,14.0,29.87,WSW,246,0.0,7.0,54,0.00,SCT,SCT,0.00,WeatherDisplay:10.34,2013-03-14 10:59:00,
2013-03-14 07:04:00,28.4,13.4,29.87,NNW,328,0.0,0.0,53,0.00,SCT,SCT,0.00,WeatherDisplay:10.34,2013-03-14 11:04:00,
2013-03-14 07:09:00,28.2,13.3,29.87,WNW,301,0.0,3.0,53,0.00,SCT,SCT,0.00,WeatherDisplay:10.34,2013-03-14 11:09:00,
2013-03-14 07:14:00,28.4,13.9,29.87,SW,231,3.0,3.0,54,0.00,SCT,SCT,0.00,WeatherDisplay:10.34,2013-03-14 11:14:00,
2013-03-14 07:19:00,28.6,14.0,29.87,SW,233,0.0,2.0,54,0.00,SCT,SCT,0.00,WeatherDisplay:10.34,2013-03-14 11:19:00,
2013-03-14 07:24:00,28.8,14.2,29.87,West,272,0.0,0.0,54,0.00,SCT,SCT,0.00,WeatherDisplay:10.34,2013-03-14 11:24:00,
2013-03-14 07:29:00,28.8,14.2,29.87,NNW,341,0.0,0.0,54,0.00,SCT,SCT,0.00,WeatherDisplay:10.34,2013-03-14 11:29:00,
2013-03-14 07:34:00,28.8,14.2,29.87,West,268,0.0,3.0,54,0.00,SCT,SCT,0.00,WeatherDisplay:10.34,2013-03-14 11:34:00,
2013-03-14 07:39:00,28.8,13.8,29.87,WSW,243,4.0,7.0,53,0.00,SCT,SCT,0.00,WeatherDisplay:10.34,2013-03-14 11:39:00,
2013-03-14 07:44:00,28.6,14.0,29.87,NNW,327,0.0,5.0,54,0.00,SCT,SCT,0.00,WeatherDisplay:10.34,2013-03-14 11:44:00,
2013-03-14 07:49:00,28.6,13.6,29.87,West,274,3.0,5.0,53,0.00,SCT,SCT,0.00,WeatherDisplay:10.34,2013-03-14 11:49:00,
2013-03-14 07:54:00,28.6,14.0,29.87,NW,310,3.0,7.0,54,0.00,SCT,SCT,0.00,WeatherDisplay:10.34,2013-03-14 11:54:00,
2013-03-14 07:59:00,28.6,14.0,29.87,WNW,289,5.0,9.0,54,0.00,SCT,SCT,0.00,WeatherDisplay:10.34,2013-03-14 11:59:00,
2013-03-14 08:04:00,28.8,14.2,29.87,NW,321,4.0,7.0,54,0.00,SCT,SCT,0.00,WeatherDisplay:10.34,2013-03-14 12:04:00,
2013-03-14 08:09:00,28.8,13.8,29.87,NNW,343,3.0,7.0,53,0.00,SCT,SCT,0.00,WeatherDisplay:10.34,2013-03-14 12:09:00,
2013-03-14 08:14:00,28.8,14.2,29.87,West,265,0.0,6.0,54,0.00,SCT,SCT,0.00,WeatherDisplay:10.34,2013-03-14 12:14:00,
2013-03-14 08:19:00,28.9,14.4,29.87,NNE,22,4.0,6.0,54,0.00,SCT,SCT,0.00,WeatherDisplay:10.34,2013-03-14 12:19:00,
2013-03-14 08:24:00,29.3,14.7,29.87,SSW,211,4.0,9.0,54,0.00,SCT,SCT,0.00,WeatherDisplay:10.34,2013-03-14 12:24:00,
2013-03-14 08:29:00,29.5,14.9,29.87,NE,44,3.0,8.0,54,0.00,SCT,SCT,0.00,WeatherDisplay:10.34,2013-03-14 12:29:00,
2013-03-14 08:34:00,29.7,14.6,29.87,SW,236,4.0,12.0,53,0.00,SCT,SCT,0.00,WeatherDisplay:10.34,2013-03-14 12:34:00,
2013-03-14 08:39:00,29.5,14.4,29.87,NNW,337,4.0,7.0,53,0.00,SCT,SCT,0.00,WeatherDisplay:10.34,2013-03-14 12:39:00,
2013-03-14 08:44:00,29.7,14.6,29.87,NNE,33,6.0,14.0,53,0.00,SCT,SCT,0.00,WeatherDisplay:10.34,2013-03-14 12:44:00,
2013-03-14 08:49:00,29.7,14.2,29.87,North,4,4.0,9.0,52,0.00,SCT,SCT,0.00,WeatherDisplay:10.34,2013-03-14 12:49:00,
2013-03-14 08:54:00,29.7,13.7,29.87,WSW,240,5.0,9.0,51,0.00,SCT,SCT,0.00,WeatherDisplay:10.34,2013-03-14 12:54:00,
2013-03-14 08:59:00,29.7,12.8,29.87,NNE,33,5.0,8.0,49,0.00,SCT,SCT,0.00,WeatherDisplay:10.34,2013-03-14 12:59:00,
2013-03-14 09:04:00,29.7,13.3,29.87,NNW,341,7.0,9.0,50,0.00,SCT,SCT,0.00,WeatherDisplay:10.34,2013-03-14 13:04:00,
2013-03-14 09:09:00,29.7,12.8,29.87,SW,224,3.0,12.0,49,0.00,SCT,SCT,0.00,WeatherDisplay:10.34,2013-03-14 13:09:00,
2013-03-14 09:14:00,29.7,12.8,29.87,SW,236,3.0,6.0,49,0.00,SCT,SCT,0.00,WeatherDisplay:10.34,2013-03-14 13:14:00,
2013-03-14 09:19:00,29.7,12.8,29.91,SW,228,5.0,8.0,49,0.00,SCT,SCT,0.00,WeatherDisplay:10.34,2013-03-14 13:19:00,
2013-03-14 09:24:00,29.7,12.3,29.91,WSW,238,6.0,9.0,48,0.00,SCT,SCT,0.00,WeatherDisplay:10.34,2013-03-14 13:24:00,
2013-03-14 09:29:00,29.7,12.3,29.91,NNW,332,4.0,12.0,48,0.00,SCT,SCT,0.00,WeatherDisplay:10.34,2013-03-14 13:29:00,
2013-03-14 09:34:00,29.7,12.3,29.87,SSW,211,3.0,10.0,48,0.00,SCT,SCT,0.00,WeatherDisplay:10.34,2013-03-14 13:34:00,
2013-03-14 09:40:00,29.8,12.5,29.88,North,7,6.0,7.0,48,0.00,SCT,SCT,0.00,WeatherDisplay:10.34,2013-03-14 13:40:00,
2013-03-14 09:45:00,30.0,12.2,29.88,West,267,5.0,15.0,47,0.00,SCT,SCT,0.00,WeatherDisplay:10.34,2013-03-14 13:45:00,
2013-03-14 09:50:00,29.8,11.5,29.88,NNW,336,11.0,21.0,46,0.00,SCT,SCT,0.00,WeatherDisplay:10.34,2013-03-14 13:50:00,
2013-03-14 09:55:00,29.7,11.4,29.88,North,4,4.0,8.0,46,0.00,SCT,SCT,0.00,WeatherDisplay:10.34,2013-03-14 13:55:00,
2013-03-14 10:00:00,29.7,11.4,29.88,WSW,239,5.0,12.0,46,0.00,SCT,SCT,0.00,WeatherDisplay:10.34,2013-03-14 14:00:00,
2013-03-14 10:05:00,29.8,11.5,29.88,NNE,18,7.0,7.0,46,0.00,SCT,SCT,0.00,WeatherDisplay:10.34,2013-03-14 14:05:00,
2013-03-14 10:10:00,30.4,11.5,29.88,WNW,293,8.0,12.0,45,0.00,SCT,SCT,0.00,WeatherDisplay:10.34,2013-03-14 14:10:00,
2013-03-14 10:15:00,30.7,11.4,29.88,West,268,4.0,12.0,44,0.00,SCT,SCT,0.00,WeatherDisplay:10.34,2013-03-14 14:15:00,
2013-03-14 10:20:00,30.6,11.2,29.88,SSW,199,7.0,10.0,44,0.00,SCT,SCT,0.00,WeatherDisplay:10.34,2013-03-14 14:20:00,
2013-03-14 10:25:00,30.9,11.5,29.88,North,351,5.0,7.0,44,0.00,SCT,SCT,0.00,WeatherDisplay:10.34,2013-03-14 14:25:00,
2013-03-14 10:30:00,31.3,11.3,29.88,NNW,342,4.0,10.0,43,0.00,SCT,SCT,0.00,WeatherDisplay:10.34,2013-03-14 14:30:00,
2013-03-14 10:35:00,31.5,11.0,29.88,East,98,7.0,12.0,42,0.00,SCT,SCT,0.00,WeatherDisplay:10.34,2013-03-14 14:35:00,
2013-03-14 10:40:00,31.5,11.0,29.88,North,8,8.0,15.0,42,0.00,SCT,SCT,0.00,WeatherDisplay:10.34,2013-03-14 14:40:00,
2013-03-14 10:45:00,31.5,11.0,29.88,North,2,11.0,21.0,42,0.00,SCT,SCT,0.00,WeatherDisplay:10.34,2013-03-14 14:45:00,
2013-03-14 10:50:00,31.6,11.1,29.88,SSW,209,8.0,10.0,42,0.00,SCT,SCT,0.00,WeatherDisplay:10.34,2013-03-14 14:50:00,
2013-03-14 10:55:00,31.8,11.3,29.87,NE,56,7.0,16.0,42,0.00,SCT,SCT,0.00,WeatherDisplay:10.34,2013-03-14 14:55:00,
2013-03-14 11:00:00,32.0,11.5,29.87,NNW,339,3.0,7.0,42,0.00,SCT,SCT,0.00,WeatherDisplay:10.34,2013-03-14 15:00:00,
2013-03-14 11:05:00,32.2,11.1,29.87,West,277,6.0,15.0,41,0.00,SCT,SCT,0.00,WeatherDisplay:10.34,2013-03-14 15:05:00,
2013-03-14 11:10:00,32.5,11.4,29.87,West,259,5.0,12.0,41,0.00,SCT,SCT,0.00,WeatherDisplay:10.34,2013-03-14 15:10:00,
2013-03-14 11:15:00,32.5,11.4,29.87,NNE,14,7.0,12.0,41,0.00,SCT,SCT,0.00,WeatherDisplay:10.34,2013-03-14 15:15:00,
2013-03-14 11:20:00,32.9,11.7,29.87,ESE,112,4.0,9.0,41,0.00,SCT,SCT,0.00,WeatherDisplay:10.34,2013-03-14 15:20:00,
2013-03-14 11:25:00,33.3,12.1,29.87,North,2,9.0,17.0,41,0.00,SCT,SCT,0.00,WeatherDisplay:10.34,2013-03-14 15:25:00,
2013-03-14 11:30:00,33.6,12.4,29.84,West,266,7.0,14.0,41,0.00,SCT,SCT,0.00,WeatherDisplay:10.34,2013-03-14 15:30:00,
2013-03-14 11:35:00,33.8,12.0,29.84,North,351,5.0,7.0,40,0.00,SCT,SCT,0.00,WeatherDisplay:10.34,2013-03-14 15:35:00,
2013-03-14 11:40:00,33.6,11.8,29.84,North,8,3.0,3.0,40,0.00,SCT,SCT,0.00,WeatherDisplay:10.34,2013-03-14 15:40:00,
2013-03-14 11:45:00,32.9,11.7,29.84,WNW,283,4.0,17.0,41,0.00,SCT,SCT,0.00,WeatherDisplay:10.34,2013-03-14 15:45:00,
2013-03-14 11:50:00,32.5,11.4,29.84,NNW,340,7.0,10.0,41,0.00,SCT,SCT,0.00,WeatherDisplay:10.34,2013-03-14 15:50:00,
2013-03-14 11:55:00,32.4,11.2,29.84,West,265,0.0,6.0,41,0.00,SCT,SCT,0.00,WeatherDisplay:10.34,2013-03-14 15:55:00,
2013-03-14 12:01:00,32.5,10.9,29.84,WNW,288,5.0,7.0,40,0.00,SCT,SCT,0.00,WeatherDisplay:10.34,2013-03-14 16:01:00,
2013-03-14 12:06:00,32.2,10.5,29.84,North,2,6.0,14.0,40,0.00,SCT,SCT,0.00,WeatherDisplay:10.34,2013-03-14 16:06:00,
2013-03-14 12:11:00,32.0,10.9,29.84,North,5,5.0,6.0,41,0.00,SCT,SCT,0.00,WeatherDisplay:10.34,2013-03-14 16:11:00,
2013-03-14 12:16:00,32.2,11.1,29.84,WNW,285,5.0,6.0,41,0.00,SCT,SCT,0.00,WeatherDisplay:10.34,2013-03-14 16:16:00,
2013-03-14 12:21:00,32.4,11.2,29.84,North,3,6.0,9.0,41,0.00,SCT,SCT,0.00,WeatherDisplay:10.34,2013-03-14 16:21:00,
2013-03-14 12:26:00,33.1,11.3,29.84,SSW,199,4.0,7.0,40,0.00,SCT,SCT,0.00,WeatherDisplay:10.34,2013-03-14 16:26:00,
2013-03-14 12:31:00,33.1,11.3,29.84,North,9,6.0,10.0,40,0.00,SCT,SCT,0.00,WeatherDisplay:10.34,2013-03-14 16:31:00,
2013-03-14 12:36:00,33.3,11.5,29.84,NNE,28,4.0,18.0,40,0.00,SCT,SCT,0.00,WeatherDisplay:10.34,2013-03-14 16:36:00,
2013-03-14 12:41:00,33.3,11.5,29.84,SW,227,4.0,6.0,40,0.00,SCT,SCT,0.00,WeatherDisplay:10.34,2013-03-14 16:41:00,
2013-03-14 12:46:00,33.1,11.3,29.84,WSW,237,5.0,7.0,40,0.00,SCT,SCT,0.00,WeatherDisplay:10.34,2013-03-14 16:46:00,
2013-03-14 12:51:00,33.4,11.7,29.84,West,274,7.0,12.0,40,0.00,SCT,SCT,0.00,WeatherDisplay:10.34,2013-03-14 16:51:00,
2013-03-14 12:56:00,33.8,12.0,29.84,North,2,7.0,10.0,40,0.00,SCT,SCT,0.00,WeatherDisplay:10.34,2013-03-14 16:56:00,
2013-03-14 13:01:00,33.3,10.9,29.81,West,267,5.0,8.0,39,0.00,SCT,SCT,0.00,WeatherDisplay:10.34,2013-03-14 17:01:00,
2013-03-14 13:06:00,33.1,10.8,29.81,NW,316,4.0,7.0,39,0.00,SCT,SCT,0.00,WeatherDisplay:10.34,2013-03-14 17:06:00,
2013-03-14 13:11:00,33.1,10.8,29.81,NNW,327,4.0,6.0,39,0.00,SCT,SCT,0.00,WeatherDisplay:10.34,2013-03-14 17:11:00,
2013-03-14 13:16:00,33.3,10.9,29.81,SW,232,0.0,3.0,39,0.00,SCT,SCT,0.00,WeatherDisplay:10.34,2013-03-14 17:16:00,
2013-03-14 13:21:00,33.3,10.4,29.81,West,264,5.0,8.0,38,0.00,SCT,SCT,0.00,WeatherDisplay:10.34,2013-03-14 17:21:00,
2013-03-14 13:26:00,32.9,10.0,29.81,West,264,4.0,9.0,38,0.00,SCT,SCT,0.00,WeatherDisplay:10.34,2013-03-14 17:26:00,
2013-03-14 13:31:00,32.7,9.9,29.81,West,278,6.0,12.0,38,0.00,SCT,SCT,0.00,WeatherDisplay:10.34,2013-03-14 17:31:00,
2013-03-14 13:36:00,32.7,10.4,29.81,WSW,249,5.0,7.0,39,0.00,SCT,SCT,0.00,WeatherDisplay:10.34,2013-03-14 17:36:00,
2013-03-14 13:41:00,32.7,11.0,29.81,SW,232,4.0,6.0,40,0.00,SCT,SCT,0.00,WeatherDisplay:10.34,2013-03-14 17:41:00,
2013-03-14 13:46:00,33.1,11.3,29.81,NNE,24,8.0,14.0,40,0.00,SCT,SCT,0.00,WeatherDisplay:10.34,2013-03-14 17:46:00,
2013-03-14 13:51:00,33.1,10.8,29.81,North,351,6.0,12.0,39,0.00,SCT,SCT,0.00,WeatherDisplay:10.34,2013-03-14 17:51:00,
2013-03-14 13:56:00,32.9,10.6,29.81,NE,50,4.0,7.0,39,0.00,SCT,SCT,0.00,WeatherDisplay:10.34,2013-03-14 17:56:00,
2013-03-14 14:01:00,32.7,10.4,29.81,WSW,248,4.0,7.0,39,0.00,SCT,SCT,0.00,WeatherDisplay:10.34,2013-03-14 18:01:00,
2013-03-14 14:06:00,32.9,11.2,29.82,SSW,192,3.0,8.0,40,0.00,SCT,SCT,0.00,WeatherDisplay:10.34,2013-03-14 18:06:00,
2013-03-14 14:11:00,33.3,11.5,29.81,West,276,7.0,14.0,40,0.00,SCT,SCT,0.00,WeatherDisplay:10.34,2013-03-14 18:11:00,
2013-03-14 14:18:00,33.3,10.4,29.81,WSW,245,5.0,7.0,38,0.00,SCT,SCT,0.00,WeatherDisplay:10.34,2013-03-14 18:18:00,
2013-03-14 14:23:00,33.4,11.1,29.81,North,5,3.0,17.0,39,0.00,SCT,SCT,0.00,WeatherDisplay:10.34,2013-03-14 18:23:00,
2013-03-14 14:29:00,33.4,11.1,29.81,NE,53,4.0,6.0,39,0.00,SCT,SCT,0.00,WeatherDisplay:10.34,2013-03-14 18:29:00,
2013-03-14 14:34:00,33.6,11.3,29.81,NW,322,4.0,8.0,39,0.00,SCT,SCT,0.00,WeatherDisplay:10.34,2013-03-14 18:34:00,
2013-03-14 14:40:00,33.4,11.1,29.81,NW,314,6.0,9.0,39,0.00,SCT,SCT,0.00,WeatherDisplay:10.34,2013-03-14 18:40:00,
2013-03-14 14:46:00,33.3,10.9,29.82,WNW,290,3.0,6.0,39,0.00,SCT,SCT,0.00,WeatherDisplay:10.34,2013-03-14 18:46:00,
2013-03-14 14:52:00,33.1,10.8,29.82,NW,312,5.0,9.0,39,0.00,SCT,SCT,0.00,WeatherDisplay:10.34,2013-03-14 18:52:00,
2013-03-14 14:57:00,32.9,10.0,29.82,WSW,242,7.0,9.0,38,0.00,SCT,SCT,0.00,WeatherDisplay:10.34,2013-03-14 18:57:00,
2013-03-14 15:02:00,33.1,10.8,29.82,NNW,342,8.0,10.0,39,0.00,SCT,SCT,0.00,WeatherDisplay:10.34,2013-03-14 19:02:00,
2013-03-14 15:07:00,32.9,10.6,29.82,WSW,237,11.0,21.0,39,0.00,SCT,SCT,0.00,WeatherDisplay:10.34,2013-03-14 19:07:00,
2013-03-14 15:12:00,32.7,11.0,29.82,WSW,254,6.0,6.0,40,0.00,SCT,SCT,0.00,WeatherDisplay:10.34,2013-03-14 19:12:00,
2013-03-14 15:17:00,32.5,10.3,29.82,SW,220,7.0,13.0,39,0.00,SCT,SCT,0.00,WeatherDisplay:10.34,2013-03-14 19:17:00,
2013-03-14 15:22:00,32.2,10.5,29.82,NNE,27,3.0,9.0,40,0.00,SCT,SCT,0.00,WeatherDisplay:10.34,2013-03-14 19:22:00,
2013-03-14 15:27:00,31.8,10.2,29.82,SSW,195,6.0,12.0,40,0.00,SCT,SCT,0.00,WeatherDisplay:10.34,2013-03-14 19:27:00,
2013-03-14 15:32:00,31.6,10.0,29.82,NNW,335,3.0,5.0,40,0.00,SCT,SCT,0.00,WeatherDisplay:10.34,2013-03-14 19:32:00,
2013-03-14 15:37:00,31.5,9.9,29.82,NW,319,5.0,8.0,40,0.00,SCT,SCT,0.00,WeatherDisplay:10.34,2013-03-14 19:37:00,
2013-03-14 15:43:00,31.3,9.7,29.82,NW,314,3.0,7.0,40,0.00,SCT,SCT,0.00,WeatherDisplay:10.34,2013-03-14 19:43:00,
2013-03-14 15:48:00,31.6,10.6,29.82,NNE,24,3.0,7.0,41,0.00,SCT,SCT,0.00,WeatherDisplay:10.34,2013-03-14 19:48:00,
2013-03-14 15:53:00,31.5,10.4,29.82,West,274,0.0,10.0,41,0.00,SCT,SCT,0.00,WeatherDisplay:10.34,2013-03-14 19:53:00,
2013-03-14 15:58:00,31.5,10.4,29.82,NNE,28,3.0,10.0,41,0.00,SCT,SCT,0.00,WeatherDisplay:10.34,2013-03-14 19:58:00,
2013-03-14 16:03:00,31.6,10.6,29.82,West,269,4.0,15.0,41,0.00,SCT,SCT,0.00,WeatherDisplay:10.34,2013-03-14 20:03:00,
2013-03-14 16:08:00,31.5,10.4,29.82,North,3,3.0,6.0,41,0.00,SCT,SCT,0.00,WeatherDisplay:10.34,2013-03-14 20:08:00,
2013-03-14 16:13:00,31.5,10.4,29.82,NW,320,8.0,9.0,41,0.00,SCT,SCT,0.00,WeatherDisplay:10.34,2013-03-14 20:13:00,
2013-03-14 16:18:00,31.5,10.4,29.82,ENE,57,3.0,7.0,41,0.00,SCT,SCT,0.00,WeatherDisplay:10.34,2013-03-14 20:18:00,
2013-03-14 16:23:00,31.3,9.7,29.82,NNW,342,6.0,12.0,40,0.00,SCT,SCT,0.00,WeatherDisplay:10.34,2013-03-14 20:23:00,
2013-03-14 16:28:00,31.5,9.9,29.82,North,10,4.0,8.0,40,0.00,SCT,SCT,0.00,WeatherDisplay:10.34,2013-03-14 20:28:00,
2013-03-14 16:33:00,31.5,9.9,29.82,NNE,12,9.0,12.0,40,0.00,SCT,SCT,0.00,WeatherDisplay:10.34,2013-03-14 20:33:00,
2013-03-14 16:38:00,31.5,9.9,29.82,WNW,293,7.0,7.0,40,0.00,SCT,SCT,0.00,WeatherDisplay:10.34,2013-03-14 20:38:00,
2013-03-14 16:43:00,31.5,9.9,29.82,NNW,329,5.0,6.0,40,0.00,SCT,SCT,0.00,WeatherDisplay:10.34,2013-03-14 20:43:00,
2013-03-14 16:48:00,31.3,9.7,29.82,North,11,6.0,12.0,40,0.00,SCT,SCT,0.00,WeatherDisplay:10.34,2013-03-14 20:48:00,
2013-03-14 16:53:00,31.1,9.6,29.82,NW,310,6.0,8.0,40,0.00,SCT,SCT,0.00,WeatherDisplay:10.34,2013-03-14 20:53:00,
2013-03-14 16:58:00,30.9,9.4,29.82,NNW,337,3.0,3.0,40,0.00,SCT,SCT,0.00,WeatherDisplay:10.34,2013-03-14 20:58:00,
2013-03-14 17:04:00,30.9,9.4,29.82,East,82,5.0,5.0,40,0.00,SCT,SCT,0.00,WeatherDisplay:10.34,2013-03-14 21:04:00,
2013-03-14 17:09:00,30.9,9.4,29.82,North,351,8.0,12.0,40,0.00,SCT,SCT,0.00,WeatherDisplay:10.34,2013-03-14 21:09:00,
2013-03-14 17:15:00,30.6,9.1,29.82,WSW,250,6.0,14.0,40,0.00,SCT,SCT,0.00,WeatherDisplay:10.34,2013-03-14 21:15:00,
2013-03-14 17:20:00,30.4,8.9,29.82,North,9,4.0,6.0,40,0.00,SCT,SCT,0.00,WeatherDisplay:10.34,2013-03-14 21:20:00,
2013-03-14 17:25:00,30.6,9.1,29.82,NNE,28,6.0,17.0,40,0.00,SCT,SCT,0.00,WeatherDisplay:10.34,2013-03-14 21:25:00,
2013-03-14 17:30:00,30.4,8.9,29.85,SW,232,3.0,12.0,40,0.00,SCT,SCT,0.00,WeatherDisplay:10.34,2013-03-14 21:30:00,
2013-03-14 17:35:00,30.2,8.7,29.85,North,351,6.0,9.0,40,0.00,SCT,SCT,0.00,WeatherDisplay:10.34,2013-03-14 21:35:00,
2013-03-14 17:40:00,30.0,8.6,29.85,North,351,6.0,9.0,40,0.00,SCT,SCT,0.00,WeatherDisplay:10.34,2013-03-14 21:40:00,
2013-03-14 17:54:00,29.3,8.5,29.85,WNW,286,5.0,10.0,41,0.00,SCT,SCT,0.00,WeatherDisplay:10.34,2013-03-14 21:54:00,
2013-03-14 17:59:00,29.1,8.8,29.85,NNW,335,7.0,12.0,42,0.00,SCT,SCT,0.00,WeatherDisplay:10.34,2013-03-14 21:59:00,
2013-03-14 18:04:00,29.1,8.8,29.85,WNW,303,4.0,6.0,42,0.00,BKN,BKN,0.00,WeatherDisplay:10.34,2013-03-14 22:04:00,
2013-03-14 18:09:00,28.9,8.7,29.85,North,0,0.0,7.0,42,0.00,BKN,BKN,0.00,WeatherDisplay:10.34,2013-03-14 22:09:00,
2013-03-14 18:14:00,28.6,8.4,29.85,NNW,345,6.0,8.0,42,0.00,BKN,BKN,0.00,WeatherDisplay:10.34,2013-03-14 22:14:00,
2013-03-14 18:19:00,28.2,7.5,29.85,NNW,335,5.0,13.0,41,0.00,BKN,BKN,0.00,WeatherDisplay:10.34,2013-03-14 22:19:00,
2013-03-14 18:24:00,27.9,6.6,29.85,NW,322,6.0,10.0,40,0.00,BKN,BKN,0.00,WeatherDisplay:10.34,2013-03-14 22:24:00,
2013-03-14 18:29:00,27.5,6.8,29.89,NNW,337,0.0,2.0,41,0.00,BKN,BKN,0.00,WeatherDisplay:10.34,2013-03-14 22:29:00,
2013-03-14 18:34:00,27.5,6.8,29.89,West,281,3.0,5.0,41,0.00,BKN,BKN,0.00,WeatherDisplay:10.34,2013-03-14 22:34:00,
2013-03-14 18:39:00,27.3,6.7,29.89,NNE,15,4.0,12.0,41,0.00,BKN,BKN,0.00,WeatherDisplay:10.34,2013-03-14 22:39:00,
2013-03-14 18:44:00,26.8,6.2,29.89,NNW,342,7.0,10.0,41,0.00,BKN,BKN,0.00,WeatherDisplay:10.34,2013-03-14 22:44:00,
2013-03-14 18:49:00,26.2,5.2,29.89,WSW,243,5.0,7.0,40,0.00,BKN,BKN,0.00,WeatherDisplay:10.34,2013-03-14 22:49:00,
2013-03-14 18:54:00,26.2,5.7,29.89,NE,56,5.0,9.0,41,0.00,BKN,BKN,0.00,WeatherDisplay:10.34,2013-03-14 22:54:00,
2013-03-14 18:59:00,26.1,5.0,29.92,SW,230,3.0,7.0,40,0.00,BKN,BKN,0.00,WeatherDisplay:10.34,2013-03-14 22:59:00,
2013-03-14 19:04:00,25.5,4.0,29.92,NE,44,4.0,8.0,39,0.00,SCT,SCT,0.00,WeatherDisplay:10.34,2013-03-14 23:04:00,
2013-03-14 19:09:00,25.0,3.5,29.92,NNW,339,0.0,3.0,39,0.00,SCT,SCT,0.00,WeatherDisplay:10.34,2013-03-14 23:09:00,
2013-03-14 19:14:00,25.0,4.0,29.92,North,356,3.0,6.0,40,0.00,SCT,SCT,0.00,WeatherDisplay:10.34,2013-03-14 23:14:00,
2013-03-14 19:19:00,24.8,3.9,29.92,North,351,3.0,7.0,40,0.00,SCT,SCT,0.00,WeatherDisplay:10.34,2013-03-14 23:19:00,
2013-03-14 19:24:00,24.6,3.7,29.92,North,351,4.0,5.0,40,0.00,SCT,SCT,0.00,WeatherDisplay:10.34,2013-03-14 23:24:00,
2013-03-14 19:29:00,24.3,3.4,29.92,NW,307,7.0,10.0,40,0.00,SCT,SCT,0.00,WeatherDisplay:10.34,2013-03-14 23:29:00,
2013-03-14 19:34:00,23.9,3.0,29.92,North,351,6.0,10.0,40,0.00,SCT,SCT,0.00,WeatherDisplay:10.34,2013-03-14 23:34:00,
2013-03-14 19:39:00,23.7,2.9,29.92,NW,319,4.0,6.0,40,0.00,SCT,SCT,0.00,WeatherDisplay:10.34,2013-03-14 23:39:00,
2013-03-14 19:44:00,23.4,2.6,29.92,North,6,6.0,9.0,40,0.00,SCT,SCT,0.00,WeatherDisplay:10.34,2013-03-14 23:44:00,
2013-03-14 19:49:00,23.4,2.6,29.92,North,351,4.0,6.0,40,0.00,SCT,SCT,0.00,WeatherDisplay:10.34,2013-03-14 23:49:00,
2013-03-14 19:54:00,23.0,1.7,29.92,North,5,4.0,13.0,39,0.00,SCT,SCT,0.00,WeatherDisplay:10.34,2013-03-14 23:54:00,
2013-03-14 19:59:00,22.5,1.2,29.92,NNE,15,4.0,12.0,39,0.00,SCT,SCT,0.00,WeatherDisplay:10.34,2013-03-14 23:59:00,
2013-03-14 20:04:00,22.1,0.9,29.92,NNW,337,5.0,8.0,39,0.00,BKN,BKN,0.00,WeatherDisplay:10.34,2013-03-15 00:04:00,
2013-03-14 20:09:00,22.1,0.9,29.92,NNE,32,5.0,7.0,39,0.00,BKN,BKN,0.00,WeatherDisplay:10.34,2013-03-15 00:09:00,
2013-03-14 20:14:00,21.9,0.7,29.92,North,351,8.0,13.0,39,0.00,BKN,BKN,0.00,WeatherDisplay:10.34,2013-03-15 00:14:00,
2013-03-14 20:19:00,21.4,0.2,29.92,NNE,18,5.0,9.0,39,0.00,BKN,BKN,0.00,WeatherDisplay:10.34,2013-03-15 00:19:00,
2013-03-14 20:24:00,21.2,0.1,29.92,NW,323,4.0,8.0,39,0.00,BKN,BKN,0.00,WeatherDisplay:10.34,2013-03-15 00:24:00,
2013-03-14 20:29:00,20.8,-0.3,29.96,West,264,7.0,9.0,39,0.00,BKN,BKN,0.00,WeatherDisplay:10.34,2013-03-15 00:29:00,
2013-03-14 20:34:00,20.7,-0.4,29.96,NNW,340,3.0,8.0,39,0.00,BKN,BKN,0.00,WeatherDisplay:10.34,2013-03-15 00:34:00,
2013-03-14 20:39:00,20.1,-0.9,29.96,West,261,5.0,12.0,39,0.00,BKN,BKN,0.00,WeatherDisplay:10.34,2013-03-15 00:39:00,
2013-03-14 20:44:00,19.8,-1.8,29.96,SW,225,7.0,10.0,38,0.00,BKN,BKN,0.00,WeatherDisplay:10.34,2013-03-15 00:44:00,
2013-03-14 20:49:00,19.4,-2.1,29.96,West,269,7.0,14.0,38,0.00,BKN,BKN,0.00,WeatherDisplay:10.34,2013-03-15 00:49:00,
2013-03-14 20:54:00,19.2,-1.7,29.96,North,0,7.0,14.0,39,0.00,BKN,BKN,0.00,WeatherDisplay:10.34,2013-03-15 00:54:00,
2013-03-14 20:59:00,19.4,-1.6,29.96,North,3,8.0,16.0,39,0.00,BKN,BKN,0.00,WeatherDisplay:10.34,2013-03-15 00:59:00,
2013-03-14 21:04:00,19.2,-1.7,29.96,NW,325,7.0,17.0,39,0.00,SCT,SCT,0.00,WeatherDisplay:10.34,2013-03-15 01:04:00,
2013-03-14 21:09:00,19.0,-1.9,29.96,NW,306,9.0,25.0,39,0.00,SCT,SCT,0.00,WeatherDisplay:10.34,2013-03-15 01:09:00,
2013-03-14 21:14:00,18.9,-2.6,29.96,SW,224,3.0,6.0,38,0.00,SCT,SCT,0.00,WeatherDisplay:10.34,2013-03-15 01:14:00,
2013-03-14 21:19:00,18.7,-2.2,29.96,NNE,15,3.0,13.0,39,0.00,SCT,SCT,0.00,WeatherDisplay:10.34,2013-03-15 01:19:00,
2013-03-14 21:24:00,18.7,-2.2,29.96,NNW,343,4.0,12.0,39,0.00,SCT,SCT,0.00,WeatherDisplay:10.34,2013-03-15 01:24:00,
2013-03-14 21:29:00,18.9,-2.1,29.96,NW,307,4.0,6.0,39,0.00,SCT,SCT,0.00,WeatherDisplay:10.34,2013-03-15 01:29:00,
2013-03-14 21:34:00,18.9,-2.1,29.93,North,351,5.0,9.0,39,0.00,SCT,SCT,0.00,WeatherDisplay:10.34,2013-03-15 01:34:00,
2013-03-14 21:39:00,18.5,-2.9,29.93,North,351,5.0,9.0,38,0.00,SCT,SCT,0.00,WeatherDisplay:10.34,2013-03-15 01:39:00,
2013-03-14 21:44:00,18.3,-3.1,29.93,NNE,32,5.0,9.0,38,0.00,SCT,SCT,0.00,WeatherDisplay:10.34,2013-03-15 01:44:00,
2013-03-14 21:49:00,18.0,-3.4,29.93,North,351,4.0,7.0,38,0.00,SCT,SCT,0.00,WeatherDisplay:10.34,2013-03-15 01:49:00,
2013-03-14 21:54:00,18.1,-3.3,29.93,SSW,201,4.0,9.0,38,0.00,SCT,SCT,0.00,WeatherDisplay:10.34,2013-03-15 01:54:00,
2013-03-14 21:59:00,18.3,-3.1,29.93,North,351,6.0,8.0,38,0.00,SCT,SCT,0.00,WeatherDisplay:10.34,2013-03-15 01:59:00,
2013-03-14 22:04:00,18.3,-2.5,29.93,WNW,295,3.0,5.0,39,0.00,BKN,BKN,0.00,WeatherDisplay:10.34,2013-03-15 02:04:00,
2013-03-14 22:09:00,18.3,-2.5,29.93,West,281,0.0,12.0,39,0.00,BKN,BKN,0.00,WeatherDisplay:10.34,2013-03-15 02:09:00,
2013-03-14 22:14:00,18.3,-2.5,29.93,North,351,0.0,6.0,39,0.00,BKN,BKN,0.00,WeatherDisplay:10.34,2013-03-15 02:14:00,
2013-03-14 22:19:00,18.3,-2.5,29.93,North,2,0.0,7.0,39,0.00,BKN,BKN,0.00,WeatherDisplay:10.34,2013-03-15 02:19:00,
2013-03-14 22:24:00,18.5,-2.4,29.93,North,0,6.0,9.0,39,0.00,BKN,BKN,0.00,WeatherDisplay:10.34,2013-03-15 02:24:00,
2013-03-14 22:29:00,18.1,-3.3,29.93,West,259,3.0,7.0,38,0.00,BKN,BKN,0.00,WeatherDisplay:10.34,2013-03-15 02:29:00,
2013-03-14 22:34:00,18.1,-3.3,29.93,WSW,257,0.0,3.0,38,0.00,BKN,BKN,0.00,WeatherDisplay:10.34,2013-03-15 02:34:00,
2013-03-14 22:39:00,18.3,-3.1,29.93,North,351,0.0,3.0,38,0.00,BKN,BKN,0.00,WeatherDisplay:10.34,2013-03-15 02:39:00,
2013-03-14 22:44:00,18.3,-2.5,29.92,SSW,201,3.0,5.0,39,0.00,BKN,BKN,0.00,WeatherDisplay:10.34,2013-03-15 02:44:00,
2013-03-14 22:49:00,18.5,-2.4,29.92,West,261,0.0,0.0,39,0.00,BKN,BKN,0.00,WeatherDisplay:10.34,2013-03-15 02:49:00,
2013-03-14 22:54:00,18.5,-2.4,29.92,NW,315,0.0,5.0,39,0.00,BKN,BKN,0.00,WeatherDisplay:10.34,2013-03-15 02:54:00,
2013-03-14 22:59:00,18.5,-2.4,29.92,North,4,3.0,7.0,39,0.00,BKN,BKN,0.00,WeatherDisplay:10.34,2013-03-15 02:59:00,
2013-03-14 23:04:00,18.3,-3.1,29.92,WNW,298,3.0,6.0,38,0.00,FEW,FEW,0.00,WeatherDisplay:10.34,2013-03-15 03:04:00,
2013-03-14 23:09:00,18.3,-2.5,29.92,NNW,337,4.0,7.0,39,0.00,FEW,FEW,0.00,WeatherDisplay:10.34,2013-03-15 03:09:00,
2013-03-14 23:14:00,18.3,-3.1,29.92,NNW,338,0.0,0.0,38,0.00,FEW,FEW,0.00,WeatherDisplay:10.34,2013-03-15 03:14:00,
2013-03-14 23:19:00,18.3,-2.5,29.92,NNW,341,0.0,3.0,39,0.00,FEW,FEW,0.00,WeatherDisplay:10.34,2013-03-15 03:19:00,
2013-03-14 23:24:00,18.3,-3.1,29.92,NNW,341,0.0,6.0,38,0.00,FEW,FEW,0.00,WeatherDisplay:10.34,2013-03-15 03:24:00,
2013-03-14 23:29:00,18.1,-3.3,29.95,North,0,4.0,6.0,38,0.00,FEW,FEW,0.00,WeatherDisplay:10.34,2013-03-15 03:29:00,
2013-03-14 23:34:00,18.1,-3.3,29.95,North,356,0.0,3.0,38,0.00,FEW,FEW,0.00,WeatherDisplay:10.34,2013-03-15 03:34:00,
2013-03-14 23:39:00,18.5,-2.9,29.95,NNE,27,0.0,3.0,38,0.00,FEW,FEW,0.00,WeatherDisplay:10.34,2013-03-15 03:39:00,
2013-03-14 23:44:00,18.5,-2.9,29.92,NW,320,3.0,8.0,38,0.00,FEW,FEW,0.00,WeatherDisplay:10.34,2013-03-15 03:44:00,
2013-03-14 23:49:00,18.5,-2.9,29.92,NNW,336,0.0,3.0,38,0.00,FEW,FEW,0.00,WeatherDisplay:10.34,2013-03-15 03:49:00,
2013-03-14 23:54:00,18.5,-2.9,29.92,ENE,60,0.0,5.0,38,0.00,FEW,FEW,0.00,WeatherDisplay:10.34,2013-03-15 03:54:00,
2013-03-14 23:59:00,18.5,-2.9,29.95,NNE,19,3.0,6.0,38,0.00,FEW,FEW,0.00,WeatherDisplay:10.34,2013-03-15 03:59:00,